createdAt,value
2023-05-23T00:02:29.205Z,56.66
2023-05-23T00:07:32.610Z,56.34
2023-05-23T00:12:34.501Z,56.23
2023-05-23T00:17:39.730Z,56.15
2023-05-23T00:22:44.414Z,56.49
2023-05-23T00:27:46.272Z,56.65
2023-05-23T00:32:48.468Z,56.79
2023-05-23T00:37:52.015Z,56.81
2023-05-23T00:42:54.027Z,56.99
2023-05-23T00:47:56.285Z,57.32
2023-05-23T00:53:00.725Z,57.70
2023-05-23T00:58:02.968Z,57.81
2023-05-23T01:03:05.340Z,57.58
2023-05-23T01:08:08.231Z,57.58
2023-05-23T01:14:13.244Z,58.33
2023-05-23T01:19:28.255Z,57.97
2023-05-23T01:24:36.593Z,58.09
2023-05-23T01:29:43.770Z,58.44
2023-05-23T01:34:46.785Z,58.20
2023-05-23T01:39:49.156Z,58.40
2023-05-23T01:44:52.467Z,58.64
2023-05-23T01:49:55.618Z,58.51
2023-05-23T01:54:59.429Z,58.89
2023-05-23T02:00:01.548Z,59.12
2023-05-23T02:05:03.481Z,58.86
2023-05-23T02:10:09.134Z,59.18
2023-05-23T02:15:11.386Z,59.11
2023-05-23T02:20:14.559Z,58.79
2023-05-23T02:25:16.471Z,59.25
2023-05-23T02:30:18.414Z,59.08
2023-05-23T02:35:21.105Z,59.17
2023-05-23T02:40:23.000Z,58.91
2023-05-23T02:45:24.936Z,58.76
2023-05-23T02:50:26.957Z,58.15
2023-05-23T02:55:29.047Z,58.22
2023-05-23T03:00:30.947Z,58.10
2023-05-23T03:05:33.069Z,57.83
2023-05-23T03:10:35.137Z,57.64
2023-05-23T03:15:37.163Z,57.35
2023-05-23T03:20:42.566Z,57.35
2023-05-23T03:25:44.620Z,57.03
2023-05-23T03:30:46.644Z,56.69
2023-05-23T03:35:48.762Z,56.58
2023-05-23T03:40:50.881Z,56.29
2023-05-23T03:45:53.102Z,55.97
2023-05-23T03:50:55.537Z,56.05
2023-05-23T03:55:58.016Z,55.85
2023-05-23T04:01:02.272Z,55.79
2023-05-23T04:06:05.691Z,55.58
2023-05-23T04:11:08.909Z,55.70
2023-05-23T04:16:13.138Z,55.40
2023-05-23T04:21:16.522Z,55.66
2023-05-23T04:26:27.673Z,56.06
2023-05-23T04:31:30.221Z,55.60
2023-05-23T04:36:38.289Z,55.48
2023-05-23T04:41:40.660Z,55.83
2023-05-23T04:47:15.950Z,55.88
2023-05-23T04:52:30.930Z,55.81
2023-05-23T04:57:33.616Z,55.33
2023-05-23T05:02:37.405Z,54.99
2023-05-23T05:07:40.529Z,54.79
2023-05-23T05:12:45.602Z,54.27
2023-05-23T05:17:49.694Z,54.45
2023-05-23T05:22:58.143Z,54.40
2023-05-23T05:28:07.807Z,54.87
2023-05-23T05:33:15.253Z,54.66
2023-05-23T05:38:17.968Z,54.37
2023-05-23T05:43:21.010Z,54.79
2023-05-23T05:48:30.445Z,55.54
2023-05-23T05:53:36.928Z,55.29
2023-05-23T05:58:55.612Z,55.81
2023-05-23T06:04:00.252Z,56.48
2023-05-23T06:09:10.807Z,56.26
2023-05-23T06:14:12.554Z,56.29
2023-05-23T06:19:18.448Z,55.38
2023-05-23T06:24:22.698Z,55.52
2023-05-23T06:29:43.470Z,55.49
2023-05-23T06:34:47.766Z,55.15
2023-05-23T06:39:49.672Z,55.36
2023-05-23T06:44:53.859Z,55.21
2023-05-23T06:49:57.868Z,55.58
2023-05-23T06:55:01.787Z,55.50
2023-05-23T07:00:05.973Z,55.49
2023-05-23T07:05:17.681Z,55.83
2023-05-23T07:10:26.476Z,55.73
2023-05-23T07:15:34.024Z,55.16
2023-05-23T07:20:54.710Z,54.09
2023-05-23T07:26:02.636Z,53.60
2023-05-23T07:31:31.578Z,53.34
2023-05-23T07:36:38.013Z,52.28
2023-05-23T07:41:43.090Z,51.87
2023-05-23T07:46:45.121Z,51.17
2023-05-23T07:51:47.267Z,50.49
2023-05-23T07:56:49.291Z,48.88
2023-05-23T08:01:53.207Z,46.34
2023-05-23T08:07:05.067Z,46.45
2023-05-23T08:12:27.973Z,46.83
2023-05-23T08:17:40.968Z,48.52
2023-05-23T08:22:43.335Z,49.55
2023-05-23T08:27:45.780Z,49.90
2023-05-23T08:33:07.308Z,49.91
2023-05-23T08:38:11.544Z,49.47
2023-05-23T08:43:20.467Z,49.29
2023-05-23T08:48:24.065Z,48.79
2023-05-23T08:53:27.526Z,47.81
2023-05-23T08:58:39.033Z,47.33
2023-05-23T09:03:44.547Z,46.31
2023-05-23T09:08:54.821Z,47.83
2023-05-23T09:13:59.303Z,48.54
2023-05-23T09:19:11.871Z,49.60
2023-05-23T09:24:14.260Z,50.87
2023-05-23T09:29:21.647Z,50.29
2023-05-23T09:34:23.645Z,49.00
2023-05-23T09:39:25.714Z,47.90
2023-05-23T09:44:28.161Z,48.21
2023-05-23T09:49:30.051Z,49.43
2023-05-23T09:54:32.014Z,48.71
2023-05-23T09:59:38.578Z,47.15
2023-05-23T10:04:41.823Z,47.65
2023-05-23T10:09:57.433Z,49.14
2023-05-23T10:15:06.036Z,49.35
2023-05-23T10:20:12.642Z,49.34
2023-05-23T10:25:15.532Z,49.74
2023-05-23T10:30:17.803Z,50.52
2023-05-23T10:35:41.717Z,50.82
2023-05-23T10:40:53.999Z,50.92
2023-05-23T10:45:55.965Z,50.26
2023-05-23T10:51:09.150Z,47.78
2023-05-23T10:56:20.016Z,46.67
2023-05-23T11:01:22.213Z,47.63
2023-05-23T11:06:44.988Z,47.06
2023-05-23T11:12:05.861Z,46.96
2023-05-23T11:17:13.775Z,46.79
2023-05-23T11:22:16.015Z,46.60
2023-05-23T11:27:40.915Z,43.48
2023-05-23T11:32:54.324Z,43.49
2023-05-23T11:37:57.799Z,44.55
2023-05-23T11:43:00.875Z,46.18
2023-05-23T11:48:10.447Z,47.31
2023-05-23T11:53:13.558Z,47.86
2023-05-23T11:58:15.532Z,47.68
2023-05-23T12:03:17.579Z,46.75
2023-05-23T12:08:19.878Z,45.84
2023-05-23T12:13:25.922Z,45.41
2023-05-23T12:18:32.513Z,44.92
2023-05-23T12:23:35.894Z,45.30
2023-05-23T12:28:43.645Z,44.99
2023-05-23T12:33:49.046Z,44.81
2023-05-23T12:38:52.211Z,44.88
2023-05-23T12:43:55.997Z,45.19
2023-05-23T12:48:57.912Z,46.37
2023-05-23T12:54:00.141Z,47.50
2023-05-23T12:59:03.469Z,48.20
2023-05-23T13:04:07.192Z,48.42
2023-05-23T13:09:09.812Z,48.10
2023-05-23T13:14:13.766Z,48.05
2023-05-23T13:19:15.682Z,48.08
2023-05-23T13:24:18.059Z,48.04
2023-05-23T13:29:20.104Z,47.61
2023-05-23T13:34:21.991Z,46.60
2023-05-23T13:39:24.041Z,45.52
2023-05-23T13:44:26.309Z,45.25
2023-05-23T13:49:28.186Z,46.20
2023-05-23T13:54:30.031Z,46.45
2023-05-23T13:59:31.902Z,45.67
2023-05-23T14:04:33.876Z,43.27
2023-05-23T14:09:35.810Z,43.46
2023-05-23T14:14:37.656Z,42.53
2023-05-23T14:19:39.662Z,42.14
2023-05-23T14:24:41.648Z,42.05
2023-05-23T14:29:46.512Z,43.54
2023-05-23T14:34:48.466Z,44.61
2023-05-23T14:39:50.400Z,44.46
2023-05-23T14:44:54.075Z,43.20
2023-05-23T14:49:55.996Z,42.92
2023-05-23T14:54:58.026Z,42.71
2023-05-23T14:59:59.864Z,42.48
2023-05-23T15:05:01.972Z,42.13
2023-05-23T15:10:06.916Z,42.49
2023-05-23T15:15:09.896Z,42.58
2023-05-23T15:20:12.233Z,42.02
2023-05-23T15:25:14.113Z,41.78
2023-05-23T15:30:16.565Z,41.15
2023-05-23T15:35:19.903Z,41.65
2023-05-23T15:40:23.122Z,41.99
2023-05-23T15:45:25.118Z,41.85
2023-05-23T15:50:28.069Z,41.65
2023-05-23T15:55:32.158Z,41.07
2023-05-23T16:00:34.211Z,40.30
2023-05-23T16:05:36.553Z,39.78
2023-05-23T16:10:40.517Z,39.71
2023-05-23T16:15:43.751Z,40.30
2023-05-23T16:20:46.078Z,40.29
2023-05-23T16:25:48.521Z,40.19
2023-05-23T16:30:51.460Z,40.34
2023-05-23T16:35:55.574Z,40.44
2023-05-23T16:40:57.536Z,40.98
2023-05-23T16:45:59.466Z,40.70
2023-05-23T16:51:02.371Z,40.68
2023-05-23T16:56:06.254Z,40.62
2023-05-23T17:01:09.250Z,40.85
2023-05-23T17:06:11.288Z,41.32
2023-05-23T17:11:14.255Z,40.98
2023-05-23T17:16:20.425Z,41.13
2023-05-23T17:21:23.668Z,41.34
2023-05-23T17:26:27.503Z,40.77
2023-05-23T17:31:30.808Z,40.73
2023-05-23T17:36:34.262Z,40.98
2023-05-23T17:41:38.176Z,40.72
2023-05-23T17:46:41.521Z,40.96
2023-05-23T17:51:43.498Z,40.60
2023-05-23T17:56:45.479Z,41.14
2023-05-23T18:01:47.950Z,40.20
2023-05-23T18:06:50.671Z,41.02
2023-05-23T18:11:53.686Z,41.00
2023-05-23T18:16:55.748Z,41.21
2023-05-23T18:21:57.842Z,41.29
2023-05-23T18:27:01.409Z,41.25
2023-05-23T18:32:04.637Z,41.42
2023-05-23T18:37:06.695Z,41.71
2023-05-23T18:42:08.627Z,42.15
2023-05-23T18:47:10.704Z,41.96
2023-05-23T18:52:13.838Z,42.24
2023-05-23T18:57:17.504Z,42.64
2023-05-23T19:02:20.808Z,42.76
2023-05-23T19:07:23.938Z,43.30
2023-05-23T19:12:26.982Z,43.87
2023-05-23T19:17:29.000Z,44.08
2023-05-23T19:22:43.097Z,44.10
2023-05-23T19:27:52.998Z,44.66
2023-05-23T19:32:55.293Z,44.99
2023-05-23T19:37:57.368Z,45.24
2023-05-23T19:42:59.352Z,45.27
2023-05-23T19:48:02.391Z,45.75
2023-05-23T19:53:05.357Z,46.41
2023-05-23T19:58:07.370Z,46.53
2023-05-23T20:03:09.480Z,46.86
2023-05-23T20:08:11.625Z,47.10
2023-05-23T20:13:13.740Z,47.34
2023-05-23T20:18:16.368Z,47.39
2023-05-23T20:23:18.398Z,47.74
2023-05-23T20:28:20.262Z,48.07
2023-05-23T20:33:22.264Z,48.39
2023-05-23T20:38:24.893Z,48.49
2023-05-23T20:43:26.758Z,48.93
2023-05-23T20:48:28.805Z,48.89
2023-05-23T20:53:31.540Z,49.14
2023-05-23T20:58:33.890Z,49.32
2023-05-23T21:03:35.923Z,49.74
2023-05-23T21:08:37.837Z,49.57
2023-05-23T21:13:39.993Z,49.76
2023-05-23T21:18:41.981Z,49.91
2023-05-23T21:23:43.851Z,50.24
2023-05-23T21:28:45.761Z,50.45
2023-05-23T21:33:48.023Z,50.95
2023-05-23T21:38:49.909Z,51.13
2023-05-23T21:43:52.501Z,51.44
2023-05-23T21:48:54.348Z,51.73
2023-05-23T21:53:56.229Z,51.62
2023-05-23T21:58:58.613Z,52.06
2023-05-23T22:04:01.628Z,51.49
2023-05-23T22:09:03.997Z,51.56
2023-05-23T22:14:05.914Z,51.58
2023-05-23T22:19:10.039Z,51.70
2023-05-23T22:24:12.110Z,52.19
2023-05-23T22:29:44.883Z,52.26
2023-05-23T22:34:46.699Z,52.17
2023-05-23T22:39:48.555Z,52.43
2023-05-23T22:44:50.474Z,52.59
2023-05-23T22:49:56.628Z,52.61
2023-05-23T22:54:58.563Z,52.59
2023-05-23T23:00:00.613Z,52.63
2023-05-23T23:05:03.849Z,53.10
2023-05-23T23:10:07.911Z,53.70
2023-05-23T23:15:10.183Z,54.03
2023-05-23T23:20:13.014Z,54.53
2023-05-23T23:25:15.552Z,54.77
2023-05-23T23:30:17.726Z,54.25
2023-05-23T23:35:19.654Z,53.99
2023-05-23T23:40:21.688Z,53.79
2023-05-23T23:45:23.561Z,53.67
2023-05-23T23:50:26.908Z,53.82
2023-05-23T23:55:28.742Z,53.81
